Terminal Aerodrome Forecast
Issued by NWS Caribou, ME

Home | Current Version | Previous Version | Text Only | Print | Product List | Glossary On
Versions: 1 2 3 4 5 6 7 8 9 10 11 12 13 14 15 16 17 18 19 20 21 22 23 24
483
FTUS41 KCAR 281736
TAFCAR
TAF
KCAR 281736Z 2818/2918 15006KT P6SM VCSH OVC012
     FM282200 14006KT 2SM -SHRASN OVC010
     FM290200 12004KT P6SM VCSH OVC010
     FM290300 VRB03KT P6SM OVC008
     FM291200 06004KT P6SM BKN010
     FM291500 36006KT P6SM BKN020=

USA.gov is the U.S. government's official web portal to all federal, state and local government web resources and services.